Time;durP1;ratioP1;P1;durP2;ratioP2;P2;SDS_P1;SDS_P2;PMS_P1;PMS_P2;Temp;Humidity;BMP_temperature;BMP_pressure;BME280_temperature;BME280_humidity;BME280_pressure;Samples;Min_cycle;Max_cycle;Signal;HPM_P1;HPM_P2
2021/08/07 00:01:56;;;;;;;2.95;1.13;;;22.80;92.60;;;;;;5005966;28;20026;-76
2021/08/07 00:04:22;;;;;;;4.38;1.20;;;22.70;92.60;;;;;;5011150;28;20032;-76
2021/08/07 00:06:48;;;;;;;4.15;1.20;;;22.70;92.60;;;;;;5010486;28;20034;-75
2021/08/07 00:09:13;;;;;;;6.00;1.13;;;22.70;92.60;;;;;;5011455;28;20056;-75
2021/08/07 00:11:39;;;;;;;2.40;1.10;;;22.80;92.70;;;;;;5010477;28;20037;-76
2021/08/07 00:14:05;;;;;;;4.32;1.15;;;22.70;92.60;;;;;;5011540;28;20029;-76
2021/08/07 00:16:31;;;;;;;4.15;1.23;;;22.70;92.60;;;;;;5010154;28;20030;-74
2021/08/07 00:18:56;;;;;;;3.75;1.02;;;22.70;92.60;;;;;;5011648;28;20026;-75
2021/08/07 00:21:22;;;;;;;4.03;1.30;;;22.70;92.60;;;;;;5011855;28;20100;-76
2021/08/07 00:23:47;;;;;;;2.65;1.08;;;22.70;92.60;;;;;;5011007;28;20053;-75
2021/08/07 00:26:13;;;;;;;2.72;0.80;;;22.70;92.60;;;;;;5009497;28;20038;-75
2021/08/07 00:28:39;;;;;;;3.97;1.27;;;22.70;92.60;;;;;;5011020;28;20109;-75
2021/08/07 00:31:05;;;;;;;3.10;0.95;;;22.70;92.50;;;;;;5011325;28;20397;-77
2021/08/07 00:33:30;;;;;;;3.85;1.10;;;22.70;92.50;;;;;;5002694;28;20041;-76
2021/08/07 00:35:56;;;;;;;3.20;1.00;;;22.70;92.50;;;;;;5011695;28;20429;-76
2021/08/07 00:38:22;;;;;;;3.28;0.98;;;22.70;92.50;;;;;;5011460;28;20498;-75
2021/08/07 00:40:47;;;;;;;2.60;1.35;;;22.70;92.50;;;;;;5011093;28;20030;-75
2021/08/07 00:43:13;;;;;;;3.42;1.02;;;22.60;92.40;;;;;;5011298;28;20026;-76
2021/08/07 00:45:39;;;;;;;3.15;0.93;;;22.70;92.50;;;;;;5010850;28;20041;-77
2021/08/07 00:48:09;;;;;;;2.90;1.05;;;22.60;92.40;;;;;;5011056;28;20014;-76
2021/08/07 00:50:35;;;;;;;3.15;0.90;;;22.60;92.50;;;;;;5011157;28;20034;-76
2021/08/07 00:53:03;;;;;;;2.42;0.73;;;22.60;92.40;;;;;;5011196;28;20069;-75
2021/08/07 00:55:29;;;;;;;3.10;1.02;;;22.60;92.40;;;;;;5010705;28;20041;-79
2021/08/07 00:57:54;;;;;;;3.28;1.10;;;22.60;92.40;;;;;;5011348;28;20033;-78
2021/08/07 01:00:20;;;;;;;2.45;1.05;;;22.60;92.40;;;;;;5011397;28;20084;-75
2021/08/07 01:03:06;;;;;;;2.40;0.80;;;22.60;92.40;;;;;;4970612;28;20394;-75
2021/08/07 01:05:41;;;;;;;3.08;0.80;;;22.60;92.40;;;;;;4929319;29;20027;-75
2021/08/07 01:08:21;;;;;;;4.10;0.80;;;22.60;92.30;;;;;;4930850;29;20031;-77
2021/08/07 01:10:58;;;;;;;4.75;0.90;;;22.60;92.60;;;;;;4929131;29;20039;-74
2021/08/07 01:13:32;;;;;;;4.30;0.95;;;22.60;92.30;;;;;;4931090;29;20024;-75
2021/08/07 01:16:30;;;;;;;4.07;1.10;;;22.60;92.30;;;;;;4935680;28;20036;-78
2021/08/07 01:18:57;;;;;;;2.35;0.77;;;22.60;92.30;;;;;;4945384;28;20043;-78
2021/08/07 01:21:27;;;;;;;1.92;0.75;;;22.60;92.30;;;;;;4930975;29;20032;-75
2021/08/07 01:23:55;;;;;;;2.70;0.85;;;22.60;92.30;;;;;;4948052;28;20475;-74
2021/08/07 01:26:45;;;;;;;3.58;0.73;;;22.60;92.30;;;;;;4933877;29;20039;-75
2021/08/07 01:29:12;;;;;;;2.80;1.10;;;22.60;92.30;;;;;;4932492;29;20028;-79
2021/08/07 01:31:38;;;;;;;2.88;0.85;;;22.50;92.20;;;;;;4933601;28;20050;-75
2021/08/07 01:34:04;;;;;;;3.10;0.80;;;22.50;92.20;;;;;;4933636;29;20479;-75
2021/08/07 01:36:31;;;;;;;3.40;0.95;;;22.50;92.20;;;;;;4933420;29;20043;-76
2021/08/07 01:38:56;;;;;;;2.13;0.80;;;22.50;92.20;;;;;;4934053;29;20411;-75
2021/08/07 01:41:23;;;;;;;3.35;0.90;;;22.50;92.20;;;;;;4933737;29;20023;-78
2021/08/07 01:43:49;;;;;;;3.30;0.60;;;22.50;92.20;;;;;;4933475;29;20543;-75
2021/08/07 01:46:17;;;;;;;3.28;0.90;;;22.50;92.20;;;;;;4993340;28;20029;-75
2021/08/07 01:48:55;;;;;;;2.35;1.10;;;22.50;92.20;;;;;;5013923;28;20072;-77
2021/08/07 01:51:25;;;;;;;2.17;0.75;;;22.40;92.20;;;;;;5013918;28;20042;-78
2021/08/07 01:53:56;;;;;;;2.78;0.73;;;22.40;92.20;;;;;;5013564;28;20097;-77
2021/08/07 01:56:25;;;;;;;4.45;0.82;;;22.40;92.20;;;;;;5013559;28;20105;-77
2021/08/07 01:59:00;;;;;;;1.98;0.63;;;22.50;92.20;;;;;;5028865;28;20030;-78
2021/08/07 02:01:28;;;;;;;1.80;0.85;;;22.40;92.20;;;;;;5014049;28;20026;-80
2021/08/07 02:03:54;;;;;;;2.13;0.80;;;22.40;92.10;;;;;;5013994;28;20073;-80
2021/08/07 02:06:21;;;;;;;3.63;0.80;;;22.40;92.10;;;;;;5013707;28;20080;-78
2021/08/07 02:08:48;;;;;;;3.20;0.77;;;22.40;92.10;;;;;;5013617;28;20040;-80
2021/08/07 02:11:16;;;;;;;3.08;1.10;;;22.50;92.10;;;;;;5013706;28;20068;-80
2021/08/07 02:13:43;;;;;;;3.42;0.70;;;22.40;92.10;;;;;;5013533;28;20022;-81
2021/08/07 02:16:09;;;;;;;5.25;0.85;;;22.40;92.10;;;;;;4957241;28;20023;-80
2021/08/07 02:18:35;;;;;;;3.33;0.85;;;22.40;92.10;;;;;;4932938;28;20107;-76
2021/08/07 02:21:01;;;;;;;2.15;0.73;;;22.40;92.00;;;;;;4932795;29;20107;-80
2021/08/07 02:23:28;;;;;;;1.38;0.60;;;22.40;92.00;;;;;;4932828;29;20040;-74
2021/08/07 02:26:02;;;;;;;2.17;0.70;;;22.40;92.00;;;;;;4933330;29;20043;-78
2021/08/07 02:28:29;;;;;;;1.83;0.60;;;22.40;92.00;;;;;;4932718;29;20391;-76
2021/08/07 02:30:57;;;;;;;1.30;0.80;;;22.40;92.00;;;;;;4933363;29;20034;-76
2021/08/07 02:33:23;;;;;;;2.20;0.50;;;22.40;92.00;;;;;;4933244;29;20028;-77
2021/08/07 02:35:51;;;;;;;3.65;0.82;;;22.40;91.90;;;;;;4938271;28;20510;-77
2021/08/07 02:38:19;;;;;;;2.55;0.98;;;22.40;92.00;;;;;;5013058;28;20040;-74
2021/08/07 02:40:44;;;;;;;4.82;0.82;;;22.30;91.90;;;;;;4957208;28;20031;-76
2021/08/07 02:43:11;;;;;;;2.45;0.73;;;22.30;91.90;;;;;;4932745;29;20480;-74
2021/08/07 02:45:38;;;;;;;2.53;0.98;;;22.30;91.90;;;;;;4943621;29;20044;-75
2021/08/07 02:48:04;;;;;;;2.03;0.73;;;22.30;91.90;;;;;;4913339;28;20028;-75
2021/08/07 02:50:30;;;;;;;4.32;0.65;;;22.30;91.90;;;;;;4913602;29;20020;-77
2021/08/07 02:52:56;;;;;;;2.15;0.50;;;22.30;91.90;;;;;;4944354;29;20070;-75
2021/08/07 02:55:23;;;;;;;2.47;0.85;;;22.30;91.90;;;;;;4913817;29;20033;-75
2021/08/07 02:57:52;;;;;;;1.48;0.60;;;22.30;91.90;;;;;;4913408;29;20028;-76
2021/08/07 03:00:19;;;;;;;2.15;0.70;;;22.30;91.80;;;;;;4913302;28;20028;-75
2021/08/07 03:02:45;;;;;;;1.45;0.50;;;22.30;91.80;;;;;;4913120;28;20396;-75
2021/08/07 03:05:10;;;;;;;3.78;0.75;;;22.30;91.80;;;;;;4913174;29;20039;-76
2021/08/07 03:07:36;;;;;;;1.30;0.50;;;22.30;91.80;;;;;;4943553;29;20028;-75
2021/08/07 03:10:05;;;;;;;2.28;0.63;;;22.20;91.80;;;;;;4913436;28;20099;-78
2021/08/07 03:12:32;;;;;;;2.20;0.70;;;22.30;91.80;;;;;;4913082;28;20028;-76
2021/08/07 03:14:58;;;;;;;2.15;1.08;;;22.20;91.70;;;;;;4929479;28;20030;-75
2021/08/07 03:17:23;;;;;;;1.70;0.60;;;22.20;91.70;;;;;;5012784;28;20033;-75
2021/08/07 03:19:49;;;;;;;2.00;0.60;;;22.20;91.70;;;;;;5012333;28;20441;-75
2021/08/07 03:22:17;;;;;;;1.95;0.70;;;22.20;91.70;;;;;;5012494;28;20025;-76
2021/08/07 03:24:43;;;;;;;2.40;0.85;;;22.20;91.70;;;;;;5004497;28;20448;-77
2021/08/07 03:27:08;;;;;;;1.88;0.68;;;22.20;91.70;;;;;;4931917;29;20028;-78
2021/08/07 03:29:34;;;;;;;1.88;0.75;;;22.20;91.70;;;;;;4931786;29;20115;-76
2021/08/07 03:31:59;;;;;;;3.38;0.88;;;22.20;91.60;;;;;;4931955;29;20384;-76
2021/08/07 03:34:25;;;;;;;1.10;0.60;;;22.20;91.60;;;;;;4935113;28;20038;-77
2021/08/07 03:36:51;;;;;;;2.13;0.60;;;22.20;91.60;;;;;;4932908;28;20078;-76
2021/08/07 03:39:16;;;;;;;2.10;0.55;;;22.20;91.60;;;;;;4931839;29;20043;-77
2021/08/07 03:41:42;;;;;;;1.65;0.68;;;22.20;91.60;;;;;;4946585;29;20059;-78
2021/08/07 03:44:07;;;;;;;2.22;0.60;;;22.20;91.60;;;;;;4931643;29;20467;-78
2021/08/07 03:46:33;;;;;;;1.40;0.50;;;22.20;91.60;;;;;;4996238;28;20060;-78
2021/08/07 03:48:59;;;;;;;2.13;0.90;;;22.20;91.60;;;;;;5011848;28;20037;-76
2021/08/07 03:51:24;;;;;;;3.42;0.82;;;22.10;91.60;;;;;;5012082;28;20131;-75
2021/08/07 03:53:50;;;;;;;2.58;0.63;;;22.20;91.60;;;;;;5011611;28;20026;-76
2021/08/07 03:56:16;;;;;;;3.17;0.70;;;22.20;91.60;;;;;;5010632;28;20111;-79
2021/08/07 03:58:41;;;;;;;2.65;0.80;;;22.10;91.60;;;;;;5011275;28;20026;-74
2021/08/07 04:01:07;;;;;;;3.38;1.00;;;22.10;91.60;;;;;;5011589;28;20406;-76
2021/08/07 04:03:33;;;;;;;4.75;0.95;;;22.10;91.50;;;;;;5011438;28;20025;-75
2021/08/07 04:06:04;;;;;;;2.00;0.70;;;22.10;91.80;;;;;;5011732;28;20037;-76
2021/08/07 04:08:30;;;;;;;3.17;0.70;;;22.10;91.50;;;;;;5011513;28;20080;-77
2021/08/07 04:10:56;;;;;;;2.80;0.80;;;22.10;91.50;;;;;;5011612;28;20022;-77
2021/08/07 04:13:21;;;;;;;2.80;0.70;;;22.10;91.50;;;;;;5011338;28;20021;-79
2021/08/07 04:15:47;;;;;;;1.85;0.70;;;22.10;91.50;;;;;;4973157;28;20048;-75
2021/08/07 04:18:13;;;;;;;3.47;0.65;;;22.10;91.50;;;;;;4931221;29;20024;-79
2021/08/07 04:20:38;;;;;;;2.65;0.70;;;22.10;91.50;;;;;;4946027;29;20038;-76
2021/08/07 04:23:05;;;;;;;2.15;0.82;;;22.10;91.50;;;;;;4931306;28;20028;-77
2021/08/07 04:25:32;;;;;;;3.20;0.60;;;;;;;;;;4945567;29;20036;-75
2021/08/07 04:27:58;;;;;;;3.13;0.95;;;22.10;91.20;;;;;;4931258;29;20035;-75
2021/08/07 04:30:23;;;;;;;2.83;0.70;;;22.10;91.50;;;;;;4936606;28;20079;-80
2021/08/07 04:32:49;;;;;;;2.28;0.70;;;22.10;91.40;;;;;;4956604;28;20113;-76
2021/08/07 04:35:15;;;;;;;3.03;0.75;;;22.10;91.40;;;;;;5011494;28;20022;-79
2021/08/07 04:37:53;;;;;;;2.08;0.73;;;22.10;91.40;;;;;;5010965;28;20034;-76
2021/08/07 04:40:20;;;;;;;2.00;0.63;;;22.10;91.40;;;;;;5011028;28;20026;-79
2021/08/07 04:42:46;;;;;;;3.30;0.70;;;22.10;91.40;;;;;;5010796;28;20046;-77
2021/08/07 04:45:12;;;;;;;3.00;1.00;;;22.10;91.40;;;;;;4993593;28;20043;-78
2021/08/07 04:47:54;;;;;;;2.70;0.68;;;22.10;91.40;;;;;;4930699;29;20012;-74
2021/08/07 04:50:21;;;;;;;2.72;0.70;;;22.10;91.30;;;;;;4931117;29;20039;-76
2021/08/07 04:52:46;;;;;;;3.45;0.60;;;22.00;91.30;;;;;;4930548;28;20028;-77
2021/08/07 04:55:12;;;;;;;1.63;0.73;;;22.00;91.60;;;;;;4930730;29;20436;-75
2021/08/07 04:57:38;;;;;;;2.47;0.88;;;22.00;91.30;;;;;;4931489;28;20535;-79
2021/08/07 05:00:04;;;;;;;2.30;0.60;;;22.10;91.30;;;;;;4938387;28;20538;-76
2021/08/07 05:02:29;;;;;;;1.73;0.55;;;22.00;91.20;;;;;;4934833;28;20047;-76
2021/08/07 05:04:55;;;;;;;2.13;0.90;;;22.00;91.30;;;;;;4933723;29;20078;-74
2021/08/07 05:07:21;;;;;;;3.22;0.88;;;22.00;91.30;;;;;;4934214;29;20363;-76
2021/08/07 05:09:46;;;;;;;1.63;0.80;;;22.00;91.20;;;;;;4933955;29;20039;-78
2021/08/07 05:12:12;;;;;;;2.72;0.90;;;22.00;91.30;;;;;;4934104;28;20035;-78
2021/08/07 05:14:37;;;;;;;2.15;0.73;;;22.00;91.30;;;;;;4933834;28;20418;-80
2021/08/07 05:17:03;;;;;;;3.35;0.90;;;22.00;91.30;;;;;;5011865;28;20033;-77
2021/08/07 05:19:28;;;;;;;1.90;0.60;;;22.00;91.30;;;;;;5015062;28;20032;-76
2021/08/07 05:21:54;;;;;;;1.80;0.82;;;22.00;91.30;;;;;;5013104;28;20026;-78
2021/08/07 05:24:20;;;;;;;2.30;0.85;;;22.00;91.30;;;;;;5014490;28;20557;-78
2021/08/07 05:26:45;;;;;;;2.35;0.70;;;22.00;91.30;;;;;;5014443;28;20034;-77
2021/08/07 05:29:14;;;;;;;1.55;0.60;;;22.00;91.30;;;;;;5014703;28;20417;-76
2021/08/07 05:31:39;;;;;;;2.40;0.95;;;22.00;91.30;;;;;;5014266;28;20033;-75
2021/08/07 05:34:05;;;;;;;1.52;0.60;;;22.00;91.30;;;;;;5014341;28;20025;-78
2021/08/07 05:36:31;;;;;;;4.10;0.50;;;21.90;91.20;;;;;;4979505;28;20047;-75
2021/08/07 05:38:56;;;;;;;1.85;0.50;;;22.00;91.30;;;;;;4933743;29;20078;-76
2021/08/07 05:41:22;;;;;;;4.25;0.73;;;21.90;91.20;;;;;;4933723;28;20032;-77
2021/08/07 05:43:47;;;;;;;2.95;0.70;;;22.00;91.20;;;;;;4933562;28;20067;-78
2021/08/07 05:46:13;;;;;;;2.45;0.70;;;21.90;91.20;;;;;;4982550;28;20037;-78
2021/08/07 05:48:38;;;;;;;1.73;0.57;;;21.90;91.20;;;;;;5013940;28;20042;-77
2021/08/07 05:51:04;;;;;;;1.17;0.57;;;21.90;91.20;;;;;;5013997;28;20113;-78
2021/08/07 05:53:30;;;;;;;1.73;0.52;;;21.90;91.20;;;;;;5014493;28;20030;-75
2021/08/07 05:55:56;;;;;;;1.52;0.55;;;21.90;91.20;;;;;;5014071;28;20486;-76
2021/08/07 05:58:22;;;;;;;2.88;0.80;;;21.90;91.20;;;;;;4935897;28;20028;-76
2021/08/07 06:00:48;;;;;;;1.50;0.77;;;21.90;91.20;;;;;;4933066;29;20031;-76
2021/08/07 06:03:13;;;;;;;1.58;0.60;;;21.90;91.10;;;;;;4933423;28;20028;-75
2021/08/07 06:05:39;;;;;;;1.65;0.90;;;21.90;91.10;;;;;;4932849;29;20043;-79
2021/08/07 06:08:05;;;;;;;2.00;0.77;;;21.90;91.20;;;;;;4933334;29;20024;-80
2021/08/07 06:10:31;;;;;;;2.17;0.80;;;21.90;91.10;;;;;;4932184;29;20063;-81
2021/08/07 06:12:56;;;;;;;3.70;0.88;;;21.90;91.10;;;;;;4931805;28;20396;-77
2021/08/07 06:15:22;;;;;;;3.10;0.75;;;21.90;91.10;;;;;;4933254;29;20028;-81
2021/08/07 06:17:48;;;;;;;2.22;0.70;;;21.90;91.10;;;;;;4932443;29;20036;-77
2021/08/07 06:20:14;;;;;;;2.88;0.60;;;21.90;91.10;;;;;;4931100;29;20103;-81
2021/08/07 06:22:40;;;;;;;1.92;0.60;;;21.90;91.10;;;;;;4931798;28;20101;-79
2021/08/07 06:25:07;;;;;;;2.10;0.68;;;21.90;91.10;;;;;;4932407;29;20514;-77
2021/08/07 06:27:33;;;;;;;1.40;0.70;;;21.90;91.10;;;;;;4932862;29;20056;-79
2021/08/07 06:30:00;;;;;;;0.90;0.60;;;21.90;91.10;;;;;;4933157;28;20031;-81
2021/08/07 06:32:26;;;;;;;1.77;0.60;;;21.90;91.10;;;;;;4932663;29;20070;-75
2021/08/07 06:34:52;;;;;;;1.42;0.47;;;21.90;91.00;;;;;;4932624;29;20032;-81
2021/08/07 06:37:17;;;;;;;4.95;0.70;;;21.90;91.00;;;;;;4932544;29;20034;-77
2021/08/07 06:39:43;;;;;;;2.47;0.88;;;21.90;91.10;;;;;;4932610;29;20514;-77
2021/08/07 06:42:10;;;;;;;4.22;0.80;;;21.90;91.10;;;;;;4932637;29;20028;-75
2021/08/07 06:44:35;;;;;;;16.38;14.73;;;21.90;91.10;;;;;;4932391;29;20162;-79
2021/08/07 06:47:01;;;;;;;10.00;7.75;;;21.90;91.10;;;;;;4932590;29;20047;-75
2021/08/07 06:49:26;;;;;;;9.68;6.22;;;21.90;91.20;;;;;;4932497;28;20048;-78
2021/08/07 06:51:52;;;;;;;11.82;5.35;;;21.90;91.20;;;;;;4930738;29;20038;-77
2021/08/07 06:54:18;;;;;;;12.77;6.60;;;21.90;91.30;;;;;;4932172;29;20027;-76
2021/08/07 06:56:48;;;;;;;15.30;6.97;;;21.90;91.30;;;;;;4955822;28;20022;-76
2021/08/07 06:59:15;;;;;;;7.85;5.00;;;22.00;91.40;;;;;;5012699;28;20485;-74
2021/08/07 07:01:41;;;;;;;12.57;5.40;;;22.00;91.60;;;;;;4957638;28;20027;-75
2021/08/07 07:04:07;;;;;;;15.25;5.15;;;22.00;91.70;;;;;;4930822;28;20454;-74
2021/08/07 07:06:32;;;;;;;9.07;4.95;;;22.00;91.70;;;;;;4930490;29;20031;-76
2021/08/07 07:08:58;;;;;;;11.68;4.63;;;22.00;91.80;;;;;;4930897;29;20134;-73
2021/08/07 07:11:23;;;;;;;9.88;4.15;;;22.00;91.80;;;;;;4936193;28;20503;-76
2021/08/07 07:13:49;;;;;;;9.38;4.18;;;22.00;91.90;;;;;;4930331;28;20026;-76
2021/08/07 07:16:15;;;;;;;9.55;3.60;;;22.10;91.80;;;;;;4930437;29;20055;-77
2021/08/07 07:18:40;;;;;;;12.40;3.80;;;22.00;91.80;;;;;;4930242;29;20495;-77
2021/08/07 07:21:08;;;;;;;10.32;2.70;;;22.00;91.70;;;;;;4930406;28;20035;-76
2021/08/07 07:23:33;;;;;;;6.30;2.10;;;22.10;91.70;;;;;;4930525;29;20023;-76
2021/08/07 07:25:59;;;;;;;8.93;2.25;;;22.00;91.70;;;;;;4930489;29;20044;-76
2021/08/07 07:28:24;;;;;;;8.23;2.05;;;22.10;91.70;;;;;;4935190;28;20019;-76
2021/08/07 07:30:50;;;;;;;11.52;2.70;;;22.10;91.60;;;;;;4931110;28;21034;-77
2021/08/07 07:33:16;;;;;;;4.15;2.30;;;22.10;91.80;;;;;;4931970;29;20042;-76
2021/08/07 07:35:41;;;;;;;5.68;2.38;;;22.10;91.70;;;;;;4930524;29;20032;-79
2021/08/07 07:38:07;;;;;;;12.95;2.33;;;22.10;91.70;;;;;;4931880;29;20028;-78
2021/08/07 07:40:34;;;;;;;6.50;1.98;;;22.10;91.70;;;;;;4931680;29;20506;-76
2021/08/07 07:43:00;;;;;;;3.08;1.50;;;22.10;91.60;;;;;;4931748;29;20507;-76
2021/08/07 07:45:26;;;;;;;7.05;2.03;;;22.10;91.70;;;;;;4931036;28;20040;-76
2021/08/07 07:47:52;;;;;;;7.03;1.70;;;22.10;91.80;;;;;;4939663;28;20108;-75
2021/08/07 07:50:17;;;;;;;7.45;1.60;;;22.10;91.80;;;;;;4931332;29;20495;-75
2021/08/07 07:52:44;;;;;;;8.02;1.77;;;22.10;91.70;;;;;;4937993;29;20042;-77
2021/08/07 07:55:10;;;;;;;5.30;1.67;;;22.10;91.80;;;;;;4960769;28;20089;-76
2021/08/07 07:57:36;;;;;;;6.82;1.65;;;22.10;91.60;;;;;;4937159;29;20035;-76
2021/08/07 08:00:03;;;;;;;7.00;1.30;;;22.20;91.60;;;;;;4938912;28;20023;-77
2021/08/07 08:02:29;;;;;;;7.20;1.80;;;22.20;91.70;;;;;;4930937;29;20411;-80
2021/08/07 08:04:54;;;;;;;7.40;1.67;;;22.20;91.70;;;;;;4932429;29;20031;-75
2021/08/07 08:07:20;;;;;;;7.85;1.95;;;22.20;91.70;;;;;;4932301;29;20134;-78
2021/08/07 08:09:46;;;;;;;10.05;2.00;;;22.20;91.60;;;;;;4928231;29;20020;-77
2021/08/07 08:12:11;;;;;;;8.13;1.83;;;22.20;91.60;;;;;;4925442;29;20024;-80
2021/08/07 08:14:37;;;;;;;5.07;1.50;;;22.20;91.50;;;;;;4927926;29;20081;-79
2021/08/07 08:17:03;;;;;;;8.23;1.23;;;22.20;91.50;;;;;;4938210;28;20106;-77
2021/08/07 08:19:29;;;;;;;5.97;1.35;;;22.20;91.50;;;;;;4937226;29;20099;-77
2021/08/07 08:21:55;;;;;;;5.70;1.42;;;22.20;91.40;;;;;;4939517;29;20107;-79
2021/08/07 08:24:20;;;;;;;8.98;1.50;;;22.30;91.30;;;;;;4943601;29;20039;-77
2021/08/07 08:26:46;;;;;;;5.43;1.42;;;22.20;91.10;;;;;;4994973;28;20034;-77
2021/08/07 08:29:12;;;;;;;7.70;1.63;;;22.30;91.10;;;;;;4945507;28;20043;-76
2021/08/07 08:31:38;;;;;;;8.63;1.30;;;22.30;91.10;;;;;;4938053;28;20046;-76
2021/08/07 08:34:04;;;;;;;5.10;1.00;;;22.30;91.10;;;;;;4937875;29;20032;-81
2021/08/07 08:36:30;;;;;;;6.63;1.10;;;22.30;91.00;;;;;;4951590;28;20503;-79
2021/08/07 08:38:55;;;;;;;10.15;1.60;;;22.30;91.10;;;;;;4951335;28;20034;-75
2021/08/07 08:41:23;;;;;;;9.25;1.85;;;22.30;91.10;;;;;;4926240;28;20404;-78
2021/08/07 08:43:51;;;;;;;3.67;1.02;;;22.30;91.00;;;;;;4929283;28;20399;-80
2021/08/07 08:46:19;;;;;;;3.67;1.30;;;22.30;91.00;;;;;;4936279;28;20044;-80
2021/08/07 08:48:45;;;;;;;8.43;1.50;;;22.30;90.90;;;;;;4932782;29;20036;-78
2021/08/07 08:51:12;;;;;;;5.90;1.10;;;22.30;90.60;;;;;;4938041;29;20031;-79
2021/08/07 08:53:41;;;;;;;5.20;1.70;;;22.30;90.70;;;;;;4939200;28;20027;-79
2021/08/07 08:56:10;;;;;;;10.48;1.85;;;22.30;90.80;;;;;;4933073;28;20115;-78
2021/08/07 08:58:36;;;;;;;8.45;1.63;;;22.40;90.70;;;;;;4935355;29;20566;-79
2021/08/07 09:01:08;;;;;;;7.15;1.00;;;22.40;90.70;;;;;;4939557;29;20106;-79
2021/08/07 09:03:35;;;;;;;9.88;1.58;;;22.40;90.70;;;;;;4942000;28;20035;-79
2021/08/07 09:06:01;;;;;;;4.13;1.00;;;22.40;90.70;;;;;;4940837;28;20573;-80
2021/08/07 09:08:27;;;;;;;5.80;1.13;;;22.40;90.60;;;;;;4931430;28;20047;-80
2021/08/07 09:11:17;;;;;;;9.88;1.50;;;22.40;90.60;;;;;;4933262;28;20032;-79
2021/08/07 09:13:43;;;;;;;6.22;1.02;;;22.50;90.60;;;;;;4940810;29;20032;-80
2021/08/07 09:16:10;;;;;;;11.88;1.50;;;22.50;90.60;;;;;;4941718;28;20146;-81
2021/08/07 09:18:36;;;;;;;9.20;1.90;;;22.60;90.50;;;;;;4932225;29;20027;-79
2021/08/07 09:21:13;;;;;;;12.60;2.58;;;22.50;90.50;;;;;;4936709;29;20028;-81
2021/08/07 09:23:39;;;;;;;9.82;1.58;;;22.60;90.80;;;;;;4979879;28;20035;-79
2021/08/07 09:26:24;;;;;;;14.02;2.80;;;22.60;90.40;;;;;;4936110;28;20032;-79
2021/08/07 09:28:51;;;;;;;13.07;5.07;;;22.60;90.60;;;;;;4944185;28;20039;-79
2021/08/07 09:31:17;;;;;;;22.80;5.38;;;22.60;90.50;;;;;;4956568;28;20015;-81
2021/08/07 09:33:43;;;;;;;22.10;5.97;;;22.60;90.80;;;;;;4931986;29;20416;-81
2021/08/07 09:36:09;;;;;;;27.67;10.10;;;22.60;90.60;;;;;;4934296;28;20019;-81
2021/08/07 09:38:42;;;;;;;28.98;11.75;;;22.70;90.80;;;;;;4933136;28;20043;-81
2021/08/07 09:41:08;;;;;;;41.05;16.05;;;22.70;90.80;;;;;;4979516;28;20034;-78
2021/08/07 09:43:44;;;;;;;52.95;26.38;;;22.80;90.90;;;;;;4941996;28;20035;-78
2021/08/07 09:46:11;;;;;;;53.65;24.02;;;22.80;91.00;;;;;;4937683;28;20146;-78
2021/08/07 09:48:41;;;;;;;56.65;22.27;;;22.90;91.00;;;;;;4956842;28;20119;-81
2021/08/07 09:51:35;;;;;;;64.85;32.17;;;22.90;90.90;;;;;;4928044;28;20070;-79
2021/08/07 09:54:15;;;;;;;57.28;27.23;;;22.90;91.00;;;;;;4935280;29;20043;-78
2021/08/07 09:56:53;;;;;;;93.05;39.20;;;22.90;91.20;;;;;;4937022;28;20106;-78
2021/08/07 09:59:21;;;;;;;143.05;58.58;;;22.90;91.20;;;;;;4946814;28;20110;-79
2021/08/07 10:01:48;;;;;;;146.38;58.35;;;22.90;91.40;;;;;;4931211;28;20032;-79
2021/08/07 10:04:15;;;;;;;120.63;53.05;;;22.90;91.30;;;;;;4926950;29;20023;-77
2021/08/07 10:06:43;;;;;;;141.88;58.15;;;22.90;91.20;;;;;;4978076;28;20046;-78
2021/08/07 10:09:11;;;;;;;131.15;56.08;;;22.90;91.20;;;;;;4954961;28;20029;-74
2021/08/07 10:11:38;;;;;;;156.23;72.00;;;23.00;91.50;;;;;;4988425;28;20023;-78
2021/08/07 10:14:04;;;;;;;158.68;68.78;;;23.00;91.40;;;;;;4940503;28;20538;-78
2021/08/07 10:16:32;;;;;;;232.77;81.70;;;23.00;91.20;;;;;;4934838;28;20058;-78
2021/08/07 10:18:59;;;;;;;270.90;76.25;;;23.10;91.20;;;;;;4938827;29;20032;-78
2021/08/07 10:21:25;;;;;;;315.92;83.82;;;23.00;90.80;;;;;;4945278;28;20051;-78
2021/08/07 10:23:53;;;;;;;308.08;83.78;;;23.10;90.90;;;;;;4941317;28;20070;-78
2021/08/07 10:26:20;;;;;;;230.68;67.55;;;23.10;90.80;;;;;;4932942;28;20085;-78
2021/08/07 10:28:49;;;;;;;243.25;67.50;;;23.20;90.70;;;;;;4947867;29;20129;-79
2021/08/07 10:31:22;;;;;;;234.65;66.10;;;23.20;90.70;;;;;;4942287;28;20019;-78
2021/08/07 10:33:49;;;;;;;167.80;49.45;;;23.30;90.90;;;;;;4964551;28;20050;-78
2021/08/07 10:36:15;;;;;;;172.95;51.85;;;23.30;90.10;;;;;;4944840;28;20031;-78
2021/08/07 10:38:41;;;;;;;151.85;41.88;;;23.20;90.30;;;;;;4935206;28;20040;-77
2021/08/07 10:41:08;;;;;;;150.48;43.17;;;23.20;90.30;;;;;;4947549;28;20104;-77
2021/08/07 10:43:36;;;;;;;130.30;40.67;;;23.20;90.40;;;;;;4950484;28;20102;-77
2021/08/07 10:46:07;;;;;;;132.40;37.90;;;23.20;90.50;;;;;;4939862;28;20040;-77
2021/08/07 10:48:38;;;;;;;118.10;35.30;;;23.10;90.50;;;;;;4940564;28;20039;-78
2021/08/07 10:51:22;;;;;;;105.53;33.00;;;23.20;90.80;;;;;;4934984;28;20077;-78
2021/08/07 10:53:55;;;;;;;86.65;29.55;;;23.20;90.90;;;;;;4941596;28;20462;-78
2021/08/07 10:56:29;;;;;;;99.07;30.30;;;23.20;90.60;;;;;;4944329;29;20152;-78
2021/08/07 10:58:58;;;;;;;74.85;23.73;;;23.30;90.80;;;;;;4933642;29;20036;-78
2021/08/07 11:01:24;;;;;;;77.40;24.85;;;23.30;90.50;;;;;;4945055;28;20479;-77
2021/08/07 11:04:00;;;;;;;73.97;23.35;;;23.40;90.50;;;;;;4940771;28;20107;-77
2021/08/07 11:06:49;;;;;;;76.63;22.95;;;23.40;90.80;;;;;;4937177;28;20082;-78
2021/08/07 11:09:20;;;;;;;57.58;18.30;;;23.40;90.60;;;;;;4930256;29;20034;-79
2021/08/07 11:11:47;;;;;;;62.42;19.42;;;23.50;90.60;;;;;;4936880;28;20028;-76
2021/08/07 11:14:21;;;;;;;60.08;19.73;;;23.50;90.50;;;;;;4934837;28;20016;-79
2021/08/07 11:17:03;;;;;;;76.07;19.83;;;23.60;90.50;;;;;;4935659;29;20028;-78
2021/08/07 11:19:50;;;;;;;51.50;17.52;;;23.60;90.50;;;;;;4944690;28;20035;-77
2021/08/07 11:22:43;;;;;;;55.38;17.38;;;23.60;90.60;;;;;;4932016;29;20035;-76
2021/08/07 11:25:22;;;;;;;59.53;16.85;;;23.50;90.50;;;;;;4928920;28;20085;-78
2021/08/07 11:30:32;;;;;;;47.35;15.07;;;23.40;90.30;;;;;;4932606;28;20028;-76
2021/08/07 11:32:58;;;;;;;41.20;14.93;;;23.50;90.20;;;;;;4935202;29;20503;-77
2021/08/07 11:35:33;;;;;;;46.25;13.98;;;23.50;90.10;;;;;;4946172;29;20059;-76
2021/08/07 11:38:18;;;;;;;40.28;13.15;;;23.50;90.20;;;;;;4954148;28;20039;-76
2021/08/07 11:40:50;;;;;;;47.08;14.48;;;23.50;90.10;;;;;;4945349;28;20031;-76
2021/08/07 11:43:33;;;;;;;33.00;11.43;;;23.60;90.20;;;;;;4945687;28;20032;-76
2021/08/07 11:45:59;;;;;;;33.53;11.10;;;23.60;90.10;;;;;;4941955;29;20043;-75
2021/08/07 11:48:32;;;;;;;39.90;11.80;;;23.70;90.00;;;;;;4936121;28;20491;-75
2021/08/07 11:51:00;;;;;;;33.38;11.13;;;23.70;89.80;;;;;;4947465;29;20039;-75
2021/08/07 11:53:26;;;;;;;32.42;10.27;;;23.70;90.00;;;;;;4940735;29;20015;-76
2021/08/07 11:55:59;;;;;;;36.63;11.32;;;23.60;90.10;;;;;;4925005;28;20111;-76
2021/08/07 11:58:24;;;;;;;31.02;9.88;;;23.60;90.30;;;;;;4929497;28;20032;-76
2021/08/07 12:00:50;;;;;;;33.97;11.63;;;23.60;90.30;;;;;;4935030;28;20051;-76
2021/08/07 12:03:16;;;;;;;29.45;9.68;;;23.70;90.20;;;;;;4935140;28;20399;-76
2021/08/07 12:05:51;;;;;;;37.60;9.93;;;23.70;90.20;;;;;;4941590;29;20031;-76
2021/08/07 12:08:17;;;;;;;24.73;9.35;;;23.60;90.20;;;;;;4943648;28;20491;-76
2021/08/07 12:10:55;;;;;;;31.77;9.75;;;23.60;90.30;;;;;;4933738;29;20082;-76
2021/08/07 12:13:22;;;;;;;27.42;9.27;;;23.60;90.40;;;;;;4944590;29;20590;-76
2021/08/07 12:16:15;;;;;;;24.73;8.75;;;23.50;90.40;;;;;;4932254;28;20035;-77
2021/08/07 12:18:44;;;;;;;33.75;9.85;;;23.50;90.50;;;;;;4943136;29;20027;-75
2021/08/07 12:21:14;;;;;;;28.05;9.38;;;23.60;90.40;;;;;;4933453;29;20034;-76
2021/08/07 12:23:46;;;;;;;21.55;7.32;;;23.60;90.40;;;;;;4941347;29;20060;-75
2021/08/07 12:26:14;;;;;;;21.98;7.93;;;23.60;90.30;;;;;;4922451;29;20063;-75
2021/08/07 12:28:40;;;;;;;24.27;8.43;;;23.60;90.40;;;;;;4930271;28;20127;-75
2021/08/07 12:31:06;;;;;;;25.95;7.65;;;23.60;90.40;;;;;;4929902;29;20031;-75
2021/08/07 12:33:43;;;;;;;32.20;9.00;;;23.50;90.40;;;;;;4922511;29;20047;-74
2021/08/07 12:36:23;;;;;;;22.05;7.30;;;23.50;90.40;;;;;;4927917;28;20035;-76
2021/08/07 12:38:51;;;;;;;19.45;6.82;;;23.50;90.50;;;;;;4946725;29;20526;-75
2021/08/07 12:41:22;;;;;;;23.27;7.30;;;23.50;90.50;;;;;;4935589;28;20119;-75
2021/08/07 12:43:48;;;;;;;18.27;6.32;;;23.60;90.50;;;;;;4940831;29;20024;-74
2021/08/07 12:46:16;;;;;;;22.65;6.45;;;23.60;90.40;;;;;;4942445;28;20047;-74
2021/08/07 12:48:59;;;;;;;19.70;7.68;;;23.70;90.60;;;;;;4933138;29;20031;-74